Time;durP1;ratioP1;P1;durP2;ratioP2;P2;SDS_P1;SDS_P2;PMS_P1;PMS_P2;Temp;Humidity;BMP_temperature;BMP_pressure;BME280_temperature;BME280_humidity;BME280_pressure;Samples;Min_cycle;Max_cycle;Signal;HPM_P1;HPM_P2
2023/07/09 08:07:28;;;;;;;7.90;3.63;;;35.50;94.90;;;;;;4975496;23;20651;-78
2023/07/09 08:09:54;;;;;;;7.35;4.15;;;35.60;95.10;;;;;;4967551;28;20215;-75
2023/07/09 08:12:21;;;;;;;7.28;4.25;;;35.80;95.00;;;;;;4973458;28;20203;-75
2023/07/09 08:14:48;;;;;;;7.90;4.63;;;35.90;95.20;;;;;;4956939;28;20586;-74
2023/07/09 08:17:15;;;;;;;6.20;4.40;;;36.00;94.70;;;;;;4955903;28;20208;-74
2023/07/09 08:19:47;;;;;;;7.30;5.63;;;35.90;94.70;;;;;;4958510;28;20208;-74
2023/07/09 08:22:14;;;;;;;9.45;5.50;;;36.10;94.40;;;;;;4958135;28;20208;-74
2023/07/09 08:24:42;;;;;;;12.05;6.68;;;36.50;94.80;;;;;;4957969;28;20228;-74
2023/07/09 08:27:10;;;;;;;10.20;6.70;;;36.70;94.40;;;;;;4957840;28;20208;-74
2023/07/09 08:29:37;;;;;;;9.50;6.68;;;37.00;93.90;;;;;;4958503;28;20212;-74
2023/07/09 08:32:05;;;;;;;9.52;6.03;;;36.80;94.00;;;;;;4958173;28;20211;-74
2023/07/09 08:34:33;;;;;;;9.68;6.18;;;36.40;95.10;;;;;;4957938;28;20232;-77
2023/07/09 08:37:00;;;;;;;9.82;7.03;;;36.70;94.10;;;;;;4958114;28;20212;-76
2023/07/09 08:39:27;;;;;;;8.65;6.18;;;36.80;94.10;;;;;;4957657;28;20298;-75
2023/07/09 08:41:59;;;;;;;11.70;6.97;;;36.90;93.50;;;;;;4958064;28;20241;-74
2023/07/09 08:44:53;;;;;;;9.23;6.55;;;36.80;93.00;;;;;;4957986;28;20263;-75
2023/07/09 08:47:28;;;;;;;11.15;6.68;;;36.70;93.30;;;;;;4957754;28;20209;-75
2023/07/09 08:49:58;;;;;;;13.05;6.95;;;36.40;94.00;;;;;;4957765;28;20207;-75
2023/07/09 08:52:29;;;;;;;14.25;7.57;;;36.50;94.10;;;;;;4957959;28;20208;-75
2023/07/09 08:54:58;;;;;;;12.30;7.65;;;36.80;93.30;;;;;;4957121;28;20236;-74
2023/07/09 08:57:29;;;;;;;10.65;7.00;;;36.60;93.00;;;;;;4957235;28;20203;-75
2023/07/09 09:00:07;;;;;;;9.57;6.75;;;36.40;94.10;;;;;;4956511;28;20209;-76
2023/07/09 09:02:37;;;;;;;11.07;7.28;;;36.50;94.00;;;;;;4957058;28;20211;-75
2023/07/09 09:05:05;;;;;;;11.77;7.15;;;36.60;93.90;;;;;;4957484;28;20228;-75
2023/07/09 09:07:41;;;;;;;14.02;7.55;;;36.90;94.30;;;;;;4957630;28;20638;-76
2023/07/09 09:10:14;;;;;;;14.85;8.25;;;36.60;94.30;;;;;;4957390;28;20566;-75
2023/07/09 09:12:57;;;;;;;13.88;8.85;;;36.90;92.70;;;;;;4957333;28;20671;-76
2023/07/09 09:15:25;;;;;;;17.40;8.93;;;36.80;92.50;;;;;;4957817;28;20251;-76
2023/07/09 09:17:56;;;;;;;14.70;8.73;;;36.80;92.60;;;;;;4957426;28;20200;-75
2023/07/09 09:20:24;;;;;;;13.20;8.07;;;36.70;92.10;;;;;;4957592;28;20232;-75
2023/07/09 09:23:10;;;;;;;13.27;7.90;;;36.50;92.60;;;;;;4957038;28;20576;-75
2023/07/09 09:25:41;;;;;;;12.75;7.93;;;36.40;92.60;;;;;;4957674;28;20570;-75
2023/07/09 09:28:10;;;;;;;13.70;7.55;;;36.30;92.60;;;;;;4956796;28;20685;-75
2023/07/09 09:30:36;;;;;;;16.17;8.52;;;36.20;92.20;;;;;;4957087;28;20215;-75
2023/07/09 09:33:08;;;;;;;11.85;7.20;;;35.90;92.80;;;;;;4957139;28;20243;-75
2023/07/09 09:35:37;;;;;;;9.52;6.28;;;35.70;93.20;;;;;;4957138;28;20212;-75
2023/07/09 09:38:10;;;;;;;11.90;7.32;;;35.80;94.30;;;;;;4957015;28;20204;-76
2023/07/09 09:40:37;;;;;;;12.70;7.00;;;35.50;94.30;;;;;;4957144;28;20239;-76
2023/07/09 09:43:14;;;;;;;13.43;8.32;;;35.60;93.80;;;;;;4956996;28;20231;-76
2023/07/09 09:45:43;;;;;;;10.50;6.90;;;35.10;93.50;;;;;;4957049;28;20211;-75
2023/07/09 09:48:16;;;;;;;12.57;7.20;;;35.10;94.40;;;;;;4956837;28;20294;-75
2023/07/09 09:50:45;;;;;;;12.52;7.00;;;35.30;93.60;;;;;;4956697;28;20215;-75
2023/07/09 09:53:20;;;;;;;11.48;7.68;;;35.20;93.50;;;;;;4956905;28;20271;-76
2023/07/09 09:55:48;;;;;;;12.57;7.82;;;35.30;93.10;;;;;;4956931;28;20214;-76
2023/07/09 09:58:17;;;;;;;9.75;6.65;;;35.40;93.00;;;;;;4956804;28;20650;-75
2023/07/09 10:00:50;;;;;;;11.88;7.25;;;35.30;93.80;;;;;;4956500;28;20235;-75
2023/07/09 10:03:17;;;;;;;12.88;7.10;;;35.20;93.30;;;;;;4956621;28;20235;-76
2023/07/09 10:05:49;;;;;;;13.35;7.00;;;34.90;93.60;;;;;;4956590;28;20212;-75
2023/07/09 10:08:26;;;;;;;13.05;7.95;;;34.80;94.40;;;;;;4956348;28;20226;-75
2023/07/09 10:10:58;;;;;;;10.77;6.97;;;34.60;93.90;;;;;;4956317;28;20203;-76
2023/07/09 10:13:31;;;;;;;13.18;8.85;;;34.30;94.40;;;;;;4956106;28;20702;-76
2023/07/09 10:16:06;;;;;;;15.43;9.30;;;34.10;93.70;;;;;;4956257;28;20214;-75
2023/07/09 10:18:47;;;;;;;13.00;7.95;;;33.90;93.60;;;;;;4956383;28;20674;-75
2023/07/09 10:21:18;;;;;;;13.70;8.30;;;33.50;95.40;;;;;;4956507;28;20239;-76
2023/07/09 10:23:54;;;;;;;14.13;9.55;;;33.10;95.40;;;;;;4955777;28;20232;-75
2023/07/09 10:26:26;;;;;;;17.55;11.23;;;32.80;95.50;;;;;;4956223;28;20539;-75
2023/07/09 10:29:09;;;;;;;14.05;9.55;;;32.50;95.50;;;;;;4956299;28;20212;-75
2023/07/09 10:31:47;;;;;;;17.23;11.10;;;32.20;96.60;;;;;;4955983;28;20211;-75
2023/07/09 10:34:23;;;;;;;17.48;9.07;;;31.90;96.50;;;;;;4956082;28;20560;-75
2023/07/09 10:37:08;;;;;;;15.15;9.30;;;31.80;96.80;;;;;;4956041;28;20212;-76
2023/07/09 10:39:38;;;;;;;13.70;8.60;;;31.80;97.90;;;;;;4955714;28;20208;-75
2023/07/09 10:42:08;;;;;;;11.32;7.40;;;31.60;97.80;;;;;;4955966;28;20720;-75
2023/07/09 10:44:40;;;;;;;11.20;6.95;;;31.80;97.90;;;;;;4955747;28;20231;-75
2023/07/09 10:47:14;;;;;;;12.80;6.97;;;31.80;98.10;;;;;;4955957;28;20212;-75
2023/07/09 10:49:43;;;;;;;10.25;6.07;;;31.80;98.30;;;;;;4955584;28;20219;-75
2023/07/09 10:52:21;;;;;;;10.35;6.88;;;32.00;98.00;;;;;;4955887;28;20208;-75
2023/07/09 10:54:58;;;;;;;9.88;6.38;;;32.00;98.00;;;;;;4955304;28;20228;-75
2023/07/09 10:57:30;;;;;;;8.40;6.00;;;31.70;98.00;;;;;;4955968;28;20219;-76
2023/07/09 10:59:59;;;;;;;9.73;6.35;;;31.40;98.00;;;;;;4955695;28;20585;-75
2023/07/09 11:02:29;;;;;;;9.35;5.55;;;31.10;98.50;;;;;;4955583;28;20236;-75
2023/07/09 11:04:57;;;;;;;7.55;4.20;;;30.90;99.20;;;;;;4955286;28;20324;-75
2023/07/09 11:07:30;;;;;;;8.00;4.45;;;30.40;99.60;;;;;;4955429;28;20562;-74
2023/07/09 11:09:59;;;;;;;7.13;4.20;;;30.60;99.80;;;;;;4955371;28;20207;-75
2023/07/09 11:12:32;;;;;;;6.30;4.13;;;30.70;99.70;;;;;;4955394;28;20260;-75
2023/07/09 11:15:05;;;;;;;14.60;5.60;;;30.80;99.90;;;;;;4954991;28;20238;-75
2023/07/09 11:17:33;;;;;;;6.47;4.00;;;30.70;99.20;;;;;;4955184;28;20208;-75
2023/07/09 11:20:07;;;;;;;4.72;3.55;;;30.60;99.10;;;;;;4955190;28;20212;-75
2023/07/09 11:22:38;;;;;;;6.47;4.03;;;30.30;99.90;;;;;;4955201;28;20235;-75
2023/07/09 11:25:11;;;;;;;5.80;3.80;;;30.10;99.90;;;;;;4955159;28;20234;-75
2023/07/09 11:27:49;;;;;;;4.18;3.10;;;30.10;99.60;;;;;;4955202;28;20247;-75
2023/07/09 11:30:23;;;;;;;4.38;2.85;;;30.00;99.90;;;;;;4954761;28;20586;-74
2023/07/09 11:32:55;;;;;;;6.03;3.60;;;29.80;99.90;;;;;;4954405;28;20580;-74
2023/07/09 11:35:24;;;;;;;6.15;3.28;;;29.70;99.90;;;;;;4954641;28;20232;-74
2023/07/09 11:37:52;;;;;;;5.90;3.13;;;29.60;99.90;;;;;;4955014;28;20212;-74
2023/07/09 11:40:20;;;;;;;4.70;2.85;;;29.40;99.90;;;;;;4954764;28;20315;-74
2023/07/09 11:42:50;;;;;;;4.90;3.05;;;29.10;99.90;;;;;;4954618;28;20243;-74
2023/07/09 11:45:21;;;;;;;8.05;3.10;;;28.70;99.90;;;;;;4954833;28;20212;-74
2023/07/09 11:47:53;;;;;;;5.53;3.47;;;28.50;99.90;;;;;;4954993;28;20215;-74
2023/07/09 11:50:26;;;;;;;7.20;3.58;;;28.30;99.90;;;;;;4954309;28;20208;-74
2023/07/09 11:52:56;;;;;;;7.30;3.08;;;28.30;99.90;;;;;;4953900;28;20208;-74
2023/07/09 11:55:29;;;;;;;4.70;2.75;;;28.10;99.90;;;;;;4954596;28;20204;-74
2023/07/09 11:57:57;;;;;;;2.78;2.13;;;27.80;99.90;;;;;;4955126;28;20303;-73
2023/07/09 12:00:29;;;;;;;4.85;2.45;;;27.60;99.90;;;;;;4954724;28;20673;-74
2023/07/09 12:02:56;;;;;;;5.45;2.85;;;27.50;99.90;;;;;;4954499;28;20235;-73
2023/07/09 12:05:29;;;;;;;4.28;1.92;;;27.50;99.90;;;;;;4954812;28;20212;-74
2023/07/09 12:07:57;;;;;;;4.60;2.10;;;27.30;99.90;;;;;;4954301;28;20216;-73
2023/07/09 12:10:27;;;;;;;3.25;2.10;;;27.20;99.90;;;;;;4954872;28;20259;-73
2023/07/09 12:12:58;;;;;;;3.25;2.15;;;27.10;99.90;;;;;;4954736;28;20243;-74
2023/07/09 12:15:28;;;;;;;4.95;1.80;;;27.10;99.90;;;;;;4954601;28;20214;-73
2023/07/09 12:18:00;;;;;;;3.83;2.17;;;27.10;99.90;;;;;;4954860;28;20212;-74
2023/07/09 12:20:30;;;;;;;3.88;2.17;;;26.90;99.90;;;;;;4954710;28;20216;-74
2023/07/09 12:22:57;;;;;;;3.03;2.10;;;26.80;99.90;;;;;;4949847;28;20235;-74
2023/07/09 12:25:26;;;;;;;3.85;2.30;;;26.70;99.90;;;;;;4946141;29;20212;-74
2023/07/09 12:27:53;;;;;;;3.75;2.20;;;26.70;99.90;;;;;;4941818;29;20205;-74
2023/07/09 12:30:20;;;;;;;4.13;2.10;;;26.70;99.90;;;;;;4942477;29;20208;-74
2023/07/09 12:32:52;;;;;;;8.45;2.60;;;26.40;99.90;;;;;;4949195;28;20677;-74
2023/07/09 12:35:19;;;;;;;5.60;3.05;;;26.10;99.90;;;;;;4950332;29;20208;-74
2023/07/09 12:37:48;;;;;;;4.50;2.75;;;25.70;99.90;;;;;;4945720;28;20571;-74
2023/07/09 12:40:20;;;;;;;4.43;2.78;;;25.20;99.90;;;;;;4949771;29;20544;-74
2023/07/09 12:42:47;;;;;;;6.43;3.08;;;24.80;99.90;;;;;;4947186;28;20663;-74
2023/07/09 12:45:17;;;;;;;7.68;4.00;;;24.40;99.90;;;;;;4952346;28;20214;-74
2023/07/09 12:47:44;;;;;;;5.35;3.47;;;24.10;99.90;;;;;;4941669;28;20576;-74
2023/07/09 12:50:31;;;;;;;7.20;3.33;;;23.90;99.90;;;;;;4951525;28;20247;-74
2023/07/09 12:53:02;;;;;;;8.10;3.50;;;23.80;99.90;;;;;;4940531;28;20204;-74
2023/07/09 12:55:38;;;;;;;5.20;3.55;;;23.70;99.90;;;;;;4952960;28;20227;-74
2023/07/09 12:58:11;;;;;;;8.68;3.85;;;23.70;99.90;;;;;;4953145;28;20204;-74
2023/07/09 13:00:37;;;;;;;8.85;4.30;;;23.70;99.90;;;;;;4953672;28;20227;-74
2023/07/09 13:03:12;;;;;;;6.03;3.53;;;23.80;99.90;;;;;;4953439;28;20248;-74
2023/07/09 13:05:52;;;;;;;10.15;4.03;;;23.50;99.90;;;;;;4957056;28;20551;-73
2023/07/09 13:08:19;;;;;;;6.82;3.80;;;23.40;99.90;;;;;;4955081;28;20208;-73
2023/07/09 13:10:50;;;;;;;6.70;4.10;;;23.50;99.90;;;;;;4945581;28;20210;-74
2023/07/09 13:13:17;;;;;;;9.23;3.92;;;23.50;99.90;;;;;;4944268;29;20292;-74
2023/07/09 13:15:45;;;;;;;7.03;4.57;;;23.60;99.90;;;;;;4947133;29;20672;-75
2023/07/09 13:18:14;;;;;;;6.25;4.38;;;23.80;99.90;;;;;;4950350;28;20217;-73
2023/07/09 13:20:46;;;;;;;5.72;3.72;;;24.00;99.90;;;;;;4955932;28;20200;-74
2023/07/09 13:23:16;;;;;;;6.75;3.58;;;24.10;99.90;;;;;;4943378;28;20241;-73
2023/07/09 13:25:43;;;;;;;7.30;3.72;;;24.30;99.90;;;;;;4953131;29;20220;-74
2023/07/09 13:28:17;;;;;;;7.78;3.75;;;24.30;99.90;;;;;;4949042;28;20659;-74
2023/07/09 13:30:44;;;;;;;8.65;4.53;;;24.40;99.90;;;;;;4940707;29;20560;-74
2023/07/09 13:33:11;;;;;;;28.35;19.45;;;24.50;99.90;;;;;;4946045;29;20235;-74
2023/07/09 13:35:38;;;;;;;8.57;4.85;;;24.80;99.90;;;;;;4952777;28;20232;-74
2023/07/09 13:38:14;;;;;;;9.30;5.32;;;25.20;99.90;;;;;;4949503;28;20219;-73
2023/07/09 13:40:41;;;;;;;9.60;5.25;;;25.50;99.90;;;;;;4955717;28;20204;-74
2023/07/09 13:43:13;;;;;;;9.88;4.40;;;25.70;99.90;;;;;;4949054;28;20232;-74
2023/07/09 13:45:40;;;;;;;7.70;5.28;;;25.90;99.90;;;;;;4955685;28;20235;-74
2023/07/09 13:48:14;;;;;;;10.48;7.85;;;26.10;99.90;;;;;;4949437;28;20204;-74
2023/07/09 13:50:41;;;;;;;6.80;3.88;;;26.20;99.90;;;;;;4948458;29;20235;-74
2023/07/09 13:53:17;;;;;;;5.20;3.33;;;26.30;99.90;;;;;;4950112;29;20231;-74
2023/07/09 13:55:45;;;;;;;6.18;3.55;;;26.30;99.90;;;;;;4953391;28;20213;-74
2023/07/09 13:58:13;;;;;;;9.65;3.50;;;26.40;99.90;;;;;;4948764;28;20305;-74
2023/07/09 14:00:41;;;;;;;8.30;3.33;;;26.40;99.90;;;;;;4953106;28;20570;-74
2023/07/09 14:03:15;;;;;;;5.72;3.80;;;26.60;99.90;;;;;;4955785;28;20240;-74
2023/07/09 14:05:42;;;;;;;7.35;3.35;;;26.80;99.90;;;;;;4952300;28;20215;-74
2023/07/09 14:08:10;;;;;;;5.65;3.80;;;26.80;99.90;;;;;;4953641;28;20303;-74
2023/07/09 14:10:38;;;;;;;7.30;3.50;;;26.90;99.90;;;;;;4948961;28;20208;-74
2023/07/09 14:13:05;;;;;;;7.68;3.53;;;27.00;99.90;;;;;;4946223;28;20276;-74
2023/07/09 14:15:32;;;;;;;5.20;3.50;;;27.10;99.90;;;;;;4948877;28;20578;-74
2023/07/09 14:17:59;;;;;;;8.38;4.80;;;27.10;99.90;;;;;;4951391;28;20204;-74
2023/07/09 14:20:26;;;;;;;5.90;3.55;;;27.20;99.90;;;;;;4948063;28;20359;-74
2023/07/09 14:22:53;;;;;;;7.38;3.50;;;27.40;99.90;;;;;;4948582;28;20239;-74
2023/07/09 14:25:22;;;;;;;7.55;3.65;;;27.50;99.90;;;;;;4948230;28;20208;-74
2023/07/09 14:27:52;;;;;;;7.28;3.28;;;27.50;99.90;;;;;;4947385;28;20210;-74
2023/07/09 14:30:24;;;;;;;6.00;3.42;;;27.50;99.90;;;;;;4949903;28;20212;-74
2023/07/09 14:32:52;;;;;;;7.15;3.70;;;27.50;99.90;;;;;;4952833;28;20250;-74
2023/07/09 14:35:22;;;;;;;7.45;3.97;;;27.80;99.90;;;;;;4937254;29;20624;-74
2023/07/09 14:37:50;;;;;;;5.43;3.53;;;27.80;99.90;;;;;;4944356;29;20211;-74
2023/07/09 14:40:19;;;;;;;6.97;3.70;;;27.70;99.90;;;;;;4944323;28;20210;-74
2023/07/09 14:42:47;;;;;;;7.50;3.45;;;27.80;99.90;;;;;;4951072;28;20228;-74
2023/07/09 14:45:21;;;;;;;5.07;2.95;;;27.80;99.90;;;;;;4942090;29;20208;-74
2023/07/09 14:47:49;;;;;;;4.10;2.42;;;27.40;99.90;;;;;;4948434;28;20244;-73
2023/07/09 14:50:16;;;;;;;4.78;2.72;;;27.10;99.90;;;;;;4942958;29;20563;-74
2023/07/09 14:52:44;;;;;;;4.22;2.42;;;27.20;99.90;;;;;;4948399;28;20296;-74
2023/07/09 14:55:16;;;;;;;5.90;2.38;;;27.30;99.90;;;;;;4948959;28;20216;-74
2023/07/09 14:57:42;;;;;;;3.90;2.55;;;27.40;99.90;;;;;;4948317;28;20259;-74
2023/07/09 15:00:14;;;;;;;4.40;2.72;;;27.30;99.90;;;;;;4947505;28;20259;-73
2023/07/09 15:02:44;;;;;;;4.25;2.65;;;27.10;99.90;;;;;;4945901;28;20650;-73
2023/07/09 15:05:20;;;;;;;4.72;2.60;;;27.00;99.90;;;;;;4945715;28;20212;-74
2023/07/09 15:07:48;;;;;;;4.72;2.55;;;26.80;99.90;;;;;;4940005;28;20215;-74
2023/07/09 15:10:16;;;;;;;5.43;2.97;;;26.70;99.90;;;;;;4945160;29;20208;-74
2023/07/09 15:12:45;;;;;;;6.55;2.55;;;26.80;99.90;;;;;;4937323;29;20291;-74
2023/07/09 15:15:22;;;;;;;4.97;2.90;;;27.00;99.90;;;;;;4944965;29;20223;-74
2023/07/09 15:17:50;;;;;;;4.63;2.90;;;27.00;99.90;;;;;;4942452;29;20204;-74
2023/07/09 15:20:20;;;;;;;4.78;2.88;;;27.00;99.90;;;;;;4950096;28;20211;-73
2023/07/09 15:22:47;;;;;;;4.68;3.10;;;27.10;99.90;;;;;;4943213;28;20231;-74
2023/07/09 15:25:16;;;;;;;7.22;3.47;;;27.10;99.90;;;;;;4952276;28;20294;-74
2023/07/09 15:27:43;;;;;;;4.40;2.85;;;27.10;99.90;;;;;;4952722;28;20215;-74
2023/07/09 15:30:19;;;;;;;4.22;2.70;;;27.00;99.90;;;;;;4953634;28;20250;-75
2023/07/09 15:32:47;;;;;;;5.15;2.97;;;27.20;99.90;;;;;;4954046;28;20262;-75
2023/07/09 15:35:16;;;;;;;3.25;2.35;;;27.30;99.90;;;;;;4954230;28;20234;-75
2023/07/09 15:37:43;;;;;;;6.78;2.60;;;27.50;99.90;;;;;;4954502;28;20208;-75
2023/07/09 15:40:20;;;;;;;3.45;2.67;;;27.60;99.90;;;;;;4954460;28;20234;-74
2023/07/09 15:42:48;;;;;;;5.05;2.55;;;27.80;99.90;;;;;;4953636;28;20563;-75
2023/07/09 15:45:16;;;;;;;3.85;2.20;;;27.80;99.90;;;;;;4954466;28;20211;-75
2023/07/09 15:47:43;;;;;;;6.82;2.25;;;27.80;99.90;;;;;;4954786;28;20210;-75
2023/07/09 15:50:17;;;;;;;3.90;2.55;;;27.80;99.90;;;;;;4954802;28;20222;-75
2023/07/09 15:52:45;;;;;;;6.15;3.28;;;27.70;99.90;;;;;;4954305;28;20203;-75
2023/07/09 15:55:15;;;;;;;6.88;2.60;;;27.60;99.90;;;;;;4954834;28;20208;-74
2023/07/09 15:57:43;;;;;;;3.40;2.25;;;27.80;99.90;;;;;;4954588;28;20730;-75
2023/07/09 16:00:16;;;;;;;4.32;1.98;;;27.90;99.90;;;;;;4954563;28;20219;-74
2023/07/09 16:02:43;;;;;;;2.97;2.00;;;28.00;99.90;;;;;;4954792;28;20295;-75
2023/07/09 16:05:20;;;;;;;4.70;2.38;;;28.00;99.90;;;;;;4954458;28;20224;-75
2023/07/09 16:07:47;;;;;;;4.45;2.22;;;28.00;99.90;;;;;;4954534;28;20226;-75
2023/07/09 16:10:14;;;;;;;5.07;2.20;;;28.00;99.90;;;;;;4954576;28;20208;-75
2023/07/09 16:12:45;;;;;;;3.65;2.15;;;27.90;99.90;;;;;;4954624;28;20685;-75
2023/07/09 16:15:14;;;;;;;3.60;2.10;;;27.80;99.90;;;;;;4954271;28;20667;-75
2023/07/09 16:17:41;;;;;;;4.13;2.17;;;27.80;99.90;;;;;;4954453;28;20207;-75
2023/07/09 16:20:10;;;;;;;4.35;1.95;;;27.80;99.90;;;;;;4954653;28;20666;-75
2023/07/09 16:22:39;;;;;;;4.00;2.35;;;27.60;99.90;;;;;;4954510;28;20236;-75
2023/07/09 16:25:15;;;;;;;4.47;2.85;;;27.50;99.90;;;;;;4954580;28;20311;-75
2023/07/09 16:27:43;;;;;;;4.60;1.92;;;27.40;99.90;;;;;;4954683;28;20207;-75
2023/07/09 16:30:14;;;;;;;3.65;1.83;;;27.40;99.90;;;;;;4954196;28;20734;-75
2023/07/09 16:32:41;;;;;;;3.15;2.00;;;27.40;99.90;;;;;;4954726;28;20235;-75
2023/07/09 16:35:12;;;;;;;3.70;2.25;;;27.30;99.90;;;;;;4954519;28;20243;-75
2023/07/09 16:37:41;;;;;;;4.53;1.60;;;27.20;99.90;;;;;;4954806;28;20667;-74
2023/07/09 16:40:15;;;;;;;3.75;1.70;;;27.10;99.90;;;;;;4957716;28;20214;-75
2023/07/09 16:42:42;;;;;;;2.72;1.50;;;26.80;99.90;;;;;;4957538;28;20230;-74
2023/07/09 16:45:10;;;;;;;6.88;2.05;;;26.70;99.90;;;;;;4958095;28;20228;-74
2023/07/09 16:47:37;;;;;;;4.40;2.42;;;26.60;99.90;;;;;;4957934;28;20216;-74
2023/07/09 16:50:04;;;;;;;4.57;2.80;;;26.40;99.90;;;;;;4958022;28;20208;-74
2023/07/09 16:52:31;;;;;;;7.38;2.65;;;26.30;99.90;;;;;;4958010;28;20212;-74
2023/07/09 16:54:59;;;;;;;5.72;3.17;;;26.10;99.90;;;;;;4957781;28;20234;-74
2023/07/09 16:57:29;;;;;;;5.70;2.85;;;26.00;99.90;;;;;;4957712;28;20665;-74
2023/07/09 17:00:00;;;;;;;6.72;3.10;;;25.80;99.90;;;;;;4957754;28;20567;-75
2023/07/09 17:02:29;;;;;;;5.78;2.92;;;25.80;99.90;;;;;;4957830;28;20210;-74
2023/07/09 17:04:57;;;;;;;7.53;3.28;;;25.80;99.90;;;;;;4957648;28;20224;-74
2023/07/09 17:07:24;;;;;;;7.78;3.17;;;25.60;99.90;;;;;;4957567;28;20216;-74
2023/07/09 17:09:53;;;;;;;6.68;3.60;;;25.50;99.90;;;;;;4957474;28;20208;-75
2023/07/09 17:12:22;;;;;;;7.65;4.28;;;25.50;99.90;;;;;;4957673;28;20208;-74
2023/07/09 17:14:49;;;;;;;6.90;4.15;;;25.30;99.90;;;;;;4957232;28;20232;-74
2023/07/09 17:17:18;;;;;;;6.95;3.63;;;25.20;99.90;;;;;;4957492;28;20215;-74
2023/07/09 17:19:46;;;;;;;9.02;3.70;;;25.20;99.90;;;;;;4957300;28;20208;-74
2023/07/09 17:22:19;;;;;;;5.70;3.25;;;24.90;99.90;;;;;;4956975;28;20214;-74
2023/07/09 17:24:46;;;;;;;8.02;3.58;;;24.70;99.90;;;;;;4957122;28;20235;-74
2023/07/09 17:27:14;;;;;;;6.70;4.15;;;24.50;99.90;;;;;;4957217;28;20685;-74
2023/07/09 17:29:43;;;;;;;7.13;3.40;;;24.30;99.90;;;;;;4957282;28;20212;-74
2023/07/09 17:32:11;;;;;;;6.75;3.42;;;24.20;99.90;;;;;;4957086;28;20216;-74
2023/07/09 17:34:38;;;;;;;9.10;4.18;;;24.00;99.90;;;;;;4956859;28;20658;-74
2023/07/09 17:37:09;;;;;;;5.40;2.50;;;24.00;99.90;;;;;;4956859;28;20211;-74
2023/07/09 17:39:38;;;;;;;5.03;2.47;;;23.80;99.90;;;;;;4956981;28;20631;-74
2023/07/09 17:42:06;;;;;;;3.03;2.20;;;23.70;99.90;;;;;;4956682;28;20663;-74
2023/07/09 17:44:33;;;;;;;4.00;2.15;;;23.70;99.90;;;;;;4956808;28;20243;-74
2023/07/09 17:47:01;;;;;;;3.67;2.30;;;23.70;99.90;;;;;;4956527;28;20302;-74
2023/07/09 17:49:31;;;;;;;3.92;2.25;;;23.70;99.90;;;;;;4955812;28;20212;-74
2023/07/09 17:51:59;;;;;;;4.32;2.63;;;23.70;99.90;;;;;;4957030;28;20212;-74
2023/07/09 17:54:27;;;;;;;3.33;1.95;;;23.70;99.90;;;;;;4956848;28;20228;-74
2023/07/09 17:56:56;;;;;;;6.10;2.42;;;23.70;99.90;;;;;;4957076;28;20222;-74
2023/07/09 17:59:27;;;;;;;7.78;2.28;;;23.70;99.90;;;;;;4956307;28;20208;-74
2023/07/09 18:02:01;;;;;;;3.65;1.88;;;23.70;99.90;;;;;;4956076;28;20391;-74
2023/07/09 18:04:30;;;;;;;5.85;1.73;;;23.60;99.90;;;;;;4956663;28;20250;-74
2023/07/09 18:06:59;;;;;;;3.10;1.85;;;23.60;99.90;;;;;;4956730;28;20247;-74
2023/07/09 18:09:25;;;;;;;2.20;1.52;;;23.60;99.90;;;;;;4956282;28;20208;-74
2023/07/09 18:11:54;;;;;;;2.72;1.38;;;23.70;99.90;;;;;;4956672;28;20208;-74
2023/07/09 18:14:26;;;;;;;3.55;1.67;;;23.60;99.90;;;;;;4955975;28;20224;-74
2023/07/09 18:16:53;;;;;;;5.75;1.50;;;23.60;99.90;;;;;;4956609;28;20295;-74
2023/07/09 18:19:26;;;;;;;3.40;1.40;;;23.60;99.90;;;;;;4956075;28;20212;-74
2023/07/09 18:21:58;;;;;;;3.22;1.33;;;23.50;99.90;;;;;;4955869;28;20667;-74
2023/07/09 18:24:25;;;;;;;3.65;1.45;;;23.50;99.90;;;;;;4955920;28;20243;-74
2023/07/09 18:26:52;;;;;;;2.22;1.10;;;23.40;99.90;;;;;;4955865;28;20303;-74
2023/07/09 18:29:28;;;;;;;2.50;1.00;;;23.40;99.90;;;;;;4956604;28;20302;-74
2023/07/09 18:31:55;;;;;;;3.03;1.30;;;23.20;99.90;;;;;;4956191;28;20555;-74
2023/07/09 18:34:22;;;;;;;2.75;1.02;;;23.20;99.90;;;;;;4955891;28;20238;-74
2023/07/09 18:36:48;;;;;;;3.72;1.30;;;23.30;99.90;;;;;;4955792;28;20212;-74
2023/07/09 18:39:18;;;;;;;2.15;1.10;;;23.20;99.90;;;;;;4955674;28;20231;-74
2023/07/09 18:41:45;;;;;;;1.85;0.73;;;23.10;99.90;;;;;;4955709;28;20216;-74
2023/07/09 18:44:21;;;;;;;3.85;1.20;;;23.10;99.90;;;;;;4955635;28;20239;-74
2023/07/09 18:46:48;;;;;;;2.30;0.80;;;23.10;99.90;;;;;;4941925;28;20204;-74
2023/07/09 18:49:15;;;;;;;1.60;0.80;;;23.10;99.90;;;;;;4937000;29;20668;-74
2023/07/09 18:51:44;;;;;;;2.67;0.80;;;23.00;99.90;;;;;;4943763;29;20668;-74
2023/07/09 18:54:13;;;;;;;2.00;0.82;;;22.90;99.90;;;;;;4951738;28;20235;-74
2023/07/09 18:56:42;;;;;;;2.40;1.23;;;22.80;99.90;;;;;;4939050;29;20298;-74
2023/07/09 18:59:12;;;;;;;2.53;0.90;;;22.80;99.90;;;;;;4942721;28;20208;-74
2023/07/09 19:01:39;;;;;;;1.60;0.82;;;22.80;99.90;;;;;;4944168;28;20267;-74
2023/07/09 19:04:14;;;;;;;2.55;0.80;;;22.80;99.90;;;;;;4943410;29;20243;-74
2023/07/09 19:06:41;;;;;;;3.03;1.10;;;22.80;99.90;;;;;;4944235;28;20239;-74
2023/07/09 19:09:15;;;;;;;3.45;1.02;;;22.70;99.90;;;;;;4948220;28;20220;-74
2023/07/09 19:11:44;;;;;;;3.25;1.20;;;22.70;99.90;;;;;;4945336;29;20559;-74
2023/07/09 19:14:10;;;;;;;2.28;0.90;;;22.50;99.90;;;;;;4947554;28;20315;-74
2023/07/09 19:16:38;;;;;;;2.55;1.00;;;22.50;99.90;;;;;;4949552;28;20675;-74
2023/07/09 19:19:07;;;;;;;6.38;1.08;;;22.50;99.90;;;;;;4948101;28;20418;-74
2023/07/09 19:21:34;;;;;;;3.03;1.05;;;22.50;99.90;;;;;;4941631;28;20211;-74
2023/07/09 19:24:02;;;;;;;2.25;0.90;;;22.50;99.90;;;;;;4950939;28;20313;-74
2023/07/09 19:26:29;;;;;;;3.83;1.25;;;22.40;99.90;;;;;;4952569;29;20227;-74
2023/07/09 19:28:57;;;;;;;6.53;1.02;;;22.30;99.90;;;;;;4948064;28;20238;-74
2023/07/09 19:31:24;;;;;;;3.53;1.13;;;22.30;99.90;;;;;;4952581;29;20291;-74
2023/07/09 19:33:50;;;;;;;2.83;1.33;;;22.30;99.90;;;;;;4948541;29;20232;-74
2023/07/09 19:36:23;;;;;;;5.05;1.48;;;22.30;99.90;;;;;;4952063;28;20215;-74
2023/07/09 19:38:51;;;;;;;2.28;1.10;;;22.20;99.90;;;;;;4950000;28;20216;-74
2023/07/09 19:41:19;;;;;;;2.85;1.15;;;22.20;99.90;;;;;;4951028;28;20255;-74
2023/07/09 19:43:45;;;;;;;2.42;1.15;;;22.10;99.90;;;;;;4951500;28;20239;-74
2023/07/09 19:46:19;;;;;;;3.05;1.10;;;22.10;99.90;;;;;;4949407;28;20209;-74
2023/07/09 19:48:46;;;;;;;2.50;1.00;;;22.10;99.90;;;;;;4949645;29;20249;-74
2023/07/09 19:51:13;;;;;;;2.05;1.13;;;22.20;99.90;;;;;;4950325;28;20689;-74
2023/07/09 19:53:40;;;;;;;1.80;0.93;;;22.10;99.90;;;;;;4948903;28;20228;-74
2023/07/09 19:56:07;;;;;;;5.10;1.60;;;22.20;99.90;;;;;;4944948;29;20215;-74
2023/07/09 19:58:34;;;;;;;2.50;1.27;;;22.10;99.90;;;;;;4953343;28;20296;-74
2023/07/09 20:01:01;;;;;;;1.95;1.23;;;22.10;99.90;;;;;;4945043;28;20295;-74
2023/07/09 20:03:31;;;;;;;5.80;1.45;;;22.10;99.90;;;;;;4962311;23;20520;-71
2023/07/09 20:05:59;;;;;;;1.80;0.98;;;22.10;99.90;;;;;;4941296;28;20242;-70
2023/07/09 20:08:26;;;;;;;4.35;1.30;;;22.00;99.90;;;;;;4949976;29;20655;-69
2023/07/09 20:10:55;;;;;;;3.60;1.27;;;22.20;99.90;;;;;;4946948;28;20634;-69
2023/07/09 20:13:24;;;;;;;3.50;1.60;;;22.00;99.90;;;;;;4950213;28;20234;-69
2023/07/09 20:15:51;;;;;;;4.43;1.48;;;22.00;99.90;;;;;;4939892;29;20208;-69
2023/07/09 20:18:19;;;;;;;3.72;1.33;;;21.90;99.90;;;;;;4949442;29;20209;-69
2023/07/09 20:20:51;;;;;;;2.80;1.15;;;21.80;99.90;;;;;;4934804;29;20205;-69
2023/07/09 20:23:18;;;;;;;3.35;1.10;;;21.80;99.90;;;;;;4936618;29;20228;-69
2023/07/09 20:25:45;;;;;;;2.58;1.00;;;21.80;99.90;;;;;;4935834;29;20262;-69
2023/07/09 20:28:19;;;;;;;3.42;1.13;;;21.80;99.90;;;;;;4937325;29;20205;-69
2023/07/09 20:30:46;;;;;;;3.25;1.10;;;21.90;99.90;;;;;;4932675;29;20213;-69
2023/07/09 20:33:13;;;;;;;3.47;1.15;;;22.00;99.90;;;;;;4937841;28;20238;-69
2023/07/09 20:35:40;;;;;;;2.00;0.90;;;22.10;99.90;;;;;;4939563;29;20208;-69
2023/07/09 20:38:14;;;;;;;3.17;1.15;;;22.00;99.90;;;;;;4936932;28;20300;-69
2023/07/09 20:40:43;;;;;;;2.13;1.10;;;22.00;99.90;;;;;;4939595;29;20211;-69
2023/07/09 20:43:19;;;;;;;4.28;1.08;;;22.00;99.90;;;;;;4934762;29;20228;-69
2023/07/09 20:45:46;;;;;;;2.83;1.10;;;22.00;99.90;;;;;;4936775;29;20232;-69
2023/07/09 20:48:13;;;;;;;5.68;1.33;;;21.90;99.90;;;;;;4933726;29;20212;-70
2023/07/09 20:50:41;;;;;;;2.45;1.02;;;21.90;99.90;;;;;;4936708;29;20209;-70
2023/07/09 20:53:08;;;;;;;3.17;1.30;;;21.90;99.90;;;;;;4930425;29;20367;-69
2023/07/09 20:55:37;;;;;;;3.47;1.20;;;21.80;99.90;;;;;;4936842;29;20220;-69
2023/07/09 20:58:04;;;;;;;2.03;0.98;;;21.80;99.90;;;;;;4934232;29;20209;-69
2023/07/09 21:00:31;;;;;;;2.80;1.13;;;21.80;99.90;;;;;;4935229;29;20568;-69
2023/07/09 21:02:58;;;;;;;1.40;0.88;;;21.80;99.90;;;;;;4930121;29;20213;-70
